sensor_id;sensor_type;location;lat;lon;timestamp;temperature;humidity
11239;DHT22;5677;48.488;13.436;2023-02-11T00:01:06;11.10;39.10
11239;DHT22;5677;48.488;13.436;2023-02-11T00:03:33;11.10;39.10
11239;DHT22;5677;48.488;13.436;2023-02-11T00:06:02;11.00;39.00
11239;DHT22;5677;48.488;13.436;2023-02-11T00:08:30;11.10;39.10
11239;DHT22;5677;48.488;13.436;2023-02-11T00:10:57;11.00;39.00
11239;DHT22;5677;48.488;13.436;2023-02-11T00:13:24;11.10;39.10
11239;DHT22;5677;48.488;13.436;2023-02-11T00:15:51;11.00;39.00
11239;DHT22;5677;48.488;13.436;2023-02-11T00:18:18;11.00;39.00
11239;DHT22;5677;48.488;13.436;2023-02-11T00:20:45;11.00;39.00
11239;DHT22;5677;48.488;13.436;2023-02-11T00:23:12;11.00;39.00
11239;DHT22;5677;48.488;13.436;2023-02-11T00:25:41;11.00;39.00
11239;DHT22;5677;48.488;13.436;2023-02-11T00:28:09;11.00;39.00
11239;DHT22;5677;48.488;13.436;2023-02-11T00:30:36;11.00;39.00
11239;DHT22;5677;48.488;13.436;2023-02-11T00:33:03;11.00;39.00
11239;DHT22;5677;48.488;13.436;2023-02-11T00:35:30;11.00;39.00
11239;DHT22;5677;48.488;13.436;2023-02-11T00:37:57;11.00;39.00
11239;DHT22;5677;48.488;13.436;2023-02-11T00:40:23;11.00;39.00
11239;DHT22;5677;48.488;13.436;2023-02-11T00:42:51;11.00;39.00
11239;DHT22;5677;48.488;13.436;2023-02-11T00:45:18;11.00;39.00
11239;DHT22;5677;48.488;13.436;2023-02-11T00:47:46;11.00;39.00
11239;DHT22;5677;48.488;13.436;2023-02-11T00:50:13;11.00;39.00
11239;DHT22;5677;48.488;13.436;2023-02-11T00:52:39;11.00;39.00
11239;DHT22;5677;48.488;13.436;2023-02-11T00:55:07;11.00;39.00
11239;DHT22;5677;48.488;13.436;2023-02-11T00:57:34;11.00;39.00
11239;DHT22;5677;48.488;13.436;2023-02-11T01:00:03;11.00;39.10
11239;DHT22;5677;48.488;13.436;2023-02-11T01:02:29;11.00;39.10
11239;DHT22;5677;48.488;13.436;2023-02-11T01:04:56;11.00;39.10
11239;DHT22;5677;48.488;13.436;2023-02-11T01:07:24;11.00;39.10
11239;DHT22;5677;48.488;13.436;2023-02-11T01:09:51;11.00;39.10
11239;DHT22;5677;48.488;13.436;2023-02-11T01:12:17;11.00;39.10
11239;DHT22;5677;48.488;13.436;2023-02-11T01:14:44;11.00;39.10
11239;DHT22;5677;48.488;13.436;2023-02-11T01:17:12;11.00;39.10
11239;DHT22;5677;48.488;13.436;2023-02-11T01:19:39;11.00;39.10
11239;DHT22;5677;48.488;13.436;2023-02-11T01:22:06;10.90;39.10
11239;DHT22;5677;48.488;13.436;2023-02-11T01:24:33;11.00;39.10
11239;DHT22;5677;48.488;13.436;2023-02-11T01:26:59;11.00;39.10
11239;DHT22;5677;48.488;13.436;2023-02-11T01:29:26;11.00;39.10
11239;DHT22;5677;48.488;13.436;2023-02-11T01:31:53;11.00;39.10
11239;DHT22;5677;48.488;13.436;2023-02-11T01:34:21;10.90;39.10
11239;DHT22;5677;48.488;13.436;2023-02-11T01:36:47;11.00;39.10
11239;DHT22;5677;48.488;13.436;2023-02-11T01:39:14;10.90;39.10
11239;DHT22;5677;48.488;13.436;2023-02-11T01:41:41;10.90;39.10
11239;DHT22;5677;48.488;13.436;2023-02-11T01:44:22;10.90;39.10
11239;DHT22;5677;48.488;13.436;2023-02-11T01:46:49;10.90;39.10
11239;DHT22;5677;48.488;13.436;2023-02-11T01:49:18;10.90;39.10
11239;DHT22;5677;48.488;13.436;2023-02-11T01:51:51;10.90;39.20
11239;DHT22;5677;48.488;13.436;2023-02-11T01:54:21;10.90;39.20
11239;DHT22;5677;48.488;13.436;2023-02-11T01:57:07;10.90;39.10
11239;DHT22;5677;48.488;13.436;2023-02-11T01:59:56;10.90;39.20
11239;DHT22;5677;48.488;13.436;2023-02-11T02:02:30;10.90;39.10
11239;DHT22;5677;48.488;13.436;2023-02-11T02:05:02;10.90;39.20
11239;DHT22;5677;48.488;13.436;2023-02-11T02:07:36;10.90;39.20
11239;DHT22;5677;48.488;13.436;2023-02-11T02:10:08;10.90;39.20
11239;DHT22;5677;48.488;13.436;2023-02-11T02:12:36;10.90;39.20
11239;DHT22;5677;48.488;13.436;2023-02-11T02:15:27;10.90;39.20
11239;DHT22;5677;48.488;13.436;2023-02-11T02:18:00;10.90;39.20
11239;DHT22;5677;48.488;13.436;2023-02-11T02:20:51;10.90;39.20
11239;DHT22;5677;48.488;13.436;2023-02-11T02:26:43;10.90;39.20
11239;DHT22;5677;48.488;13.436;2023-02-11T02:29:36;10.90;40.60
11239;DHT22;5677;48.488;13.436;2023-02-11T02:32:29;10.90;40.80
11239;DHT22;5677;48.488;13.436;2023-02-11T02:35:06;11.00;41.00
11239;DHT22;5677;48.488;13.436;2023-02-11T02:37:39;11.00;41.00
11239;DHT22;5677;48.488;13.436;2023-02-11T02:40:10;11.00;41.00
11239;DHT22;5677;48.488;13.436;2023-02-11T02:42:39;11.00;41.10
11239;DHT22;5677;48.488;13.436;2023-02-11T02:45:08;11.00;41.00
11239;DHT22;5677;48.488;13.436;2023-02-11T02:47:38;11.00;41.10
11239;DHT22;5677;48.488;13.436;2023-02-11T02:50:05;11.00;41.10
11239;DHT22;5677;48.488;13.436;2023-02-11T02:52:34;11.00;41.10
11239;DHT22;5677;48.488;13.436;2023-02-11T02:55:14;11.00;41.10
11239;DHT22;5677;48.488;13.436;2023-02-11T02:58:04;11.00;41.10
11239;DHT22;5677;48.488;13.436;2023-02-11T03:00:38;11.00;41.10
11239;DHT22;5677;48.488;13.436;2023-02-11T03:03:16;11.00;40.90
11239;DHT22;5677;48.488;13.436;2023-02-11T03:05:51;10.90;40.70
11239;DHT22;5677;48.488;13.436;2023-02-11T03:08:25;10.90;40.60
11239;DHT22;5677;48.488;13.436;2023-02-11T03:10:53;10.90;40.50
11239;DHT22;5677;48.488;13.436;2023-02-11T03:13:24;10.90;40.40
11239;DHT22;5677;48.488;13.436;2023-02-11T03:15:54;10.90;40.40
11239;DHT22;5677;48.488;13.436;2023-02-11T03:18:26;10.90;40.40
11239;DHT22;5677;48.488;13.436;2023-02-11T03:20:55;10.90;40.30
11239;DHT22;5677;48.488;13.436;2023-02-11T03:23:27;10.90;40.30
11239;DHT22;5677;48.488;13.436;2023-02-11T03:25:58;10.90;40.30
11239;DHT22;5677;48.488;13.436;2023-02-11T03:28:29;10.90;40.30
11239;DHT22;5677;48.488;13.436;2023-02-11T03:31:04;10.90;40.30
11239;DHT22;5677;48.488;13.436;2023-02-11T03:33:38;10.90;40.30
11239;DHT22;5677;48.488;13.436;2023-02-11T03:36:08;10.80;40.10
11239;DHT22;5677;48.488;13.436;2023-02-11T03:38:48;10.90;40.20
11239;DHT22;5677;48.488;13.436;2023-02-11T03:41:18;10.80;40.10
11239;DHT22;5677;48.488;13.436;2023-02-11T03:43:49;10.80;40.10
11239;DHT22;5677;48.488;13.436;2023-02-11T03:46:20;10.80;40.10
11239;DHT22;5677;48.488;13.436;2023-02-11T03:48:51;10.90;40.20
11239;DHT22;5677;48.488;13.436;2023-02-11T03:51:20;10.90;39.30
11239;DHT22;5677;48.488;13.436;2023-02-11T03:53:48;10.80;40.70
11239;DHT22;5677;48.488;13.436;2023-02-11T03:56:20;10.80;42.50
11239;DHT22;5677;48.488;13.436;2023-02-11T03:58:48;10.80;42.20
11239;DHT22;5677;48.488;13.436;2023-02-11T04:01:15;10.80;41.40
11239;DHT22;5677;48.488;13.436;2023-02-11T04:03:42;10.80;41.00
11239;DHT22;5677;48.488;13.436;2023-02-11T04:06:10;10.80;40.90
11239;DHT22;5677;48.488;13.436;2023-02-11T04:08:37;10.80;40.80
11239;DHT22;5677;48.488;13.436;2023-02-11T04:11:04;10.80;40.60
11239;DHT22;5677;48.488;13.436;2023-02-11T04:13:32;10.80;40.60
11239;DHT22;5677;48.488;13.436;2023-02-11T04:15:58;10.80;40.50
11239;DHT22;5677;48.488;13.436;2023-02-11T04:18:25;10.80;40.50
11239;DHT22;5677;48.488;13.436;2023-02-11T04:20:52;10.80;40.50
11239;DHT22;5677;48.488;13.436;2023-02-11T04:23:20;10.90;41.20
11239;DHT22;5677;48.488;13.436;2023-02-11T04:25:47;10.80;40.70
11239;DHT22;5677;48.488;13.436;2023-02-11T04:28:14;10.80;40.60
11239;DHT22;5677;48.488;13.436;2023-02-11T04:30:41;10.80;40.50
11239;DHT22;5677;48.488;13.436;2023-02-11T04:33:08;10.80;40.40
11239;DHT22;5677;48.488;13.436;2023-02-11T04:35:34;10.80;40.40
11239;DHT22;5677;48.488;13.436;2023-02-11T04:38:01;10.80;40.30
11239;DHT22;5677;48.488;13.436;2023-02-11T04:40:29;10.80;40.20
11239;DHT22;5677;48.488;13.436;2023-02-11T04:42:56;10.80;40.20
11239;DHT22;5677;48.488;13.436;2023-02-11T04:45:23;10.80;40.10
11239;DHT22;5677;48.488;13.436;2023-02-11T04:47:49;10.80;40.10
11239;DHT22;5677;48.488;13.436;2023-02-11T04:50:16;10.80;40.00
11239;DHT22;5677;48.488;13.436;2023-02-11T04:52:43;10.70;40.00
11239;DHT22;5677;48.488;13.436;2023-02-11T04:55:10;10.70;39.90
11239;DHT22;5677;48.488;13.436;2023-02-11T04:57:38;10.70;39.80
11239;DHT22;5677;48.488;13.436;2023-02-11T05:00:05;10.70;39.80
11239;DHT22;5677;48.488;13.436;2023-02-11T05:02:34;10.70;39.80
11239;DHT22;5677;48.488;13.436;2023-02-11T05:05:04;10.70;39.70
11239;DHT22;5677;48.488;13.436;2023-02-11T05:07:31;10.70;39.80
11239;DHT22;5677;48.488;13.436;2023-02-11T05:09:58;10.70;39.70
11239;DHT22;5677;48.488;13.436;2023-02-11T05:12:25;10.70;39.60
11239;DHT22;5677;48.488;13.436;2023-02-11T05:14:53;10.70;39.60
11239;DHT22;5677;48.488;13.436;2023-02-11T05:17:19;10.70;39.60
11239;DHT22;5677;48.488;13.436;2023-02-11T05:19:46;10.70;39.60
11239;DHT22;5677;48.488;13.436;2023-02-11T05:22:13;10.70;39.50
11239;DHT22;5677;48.488;13.436;2023-02-11T05:24:40;10.70;39.60
11239;DHT22;5677;48.488;13.436;2023-02-11T05:27:06;10.70;39.50
11239;DHT22;5677;48.488;13.436;2023-02-11T05:29:33;10.70;39.40
11239;DHT22;5677;48.488;13.436;2023-02-11T05:32:01;10.70;39.40
11239;DHT22;5677;48.488;13.436;2023-02-11T05:34:28;10.70;39.40
11239;DHT22;5677;48.488;13.436;2023-02-11T05:36:55;10.70;39.40
11239;DHT22;5677;48.488;13.436;2023-02-11T05:39:21;10.70;39.40
11239;DHT22;5677;48.488;13.436;2023-02-11T05:41:48;10.70;39.40
11239;DHT22;5677;48.488;13.436;2023-02-11T05:44:15;10.60;39.30
11239;DHT22;5677;48.488;13.436;2023-02-11T05:46:42;10.60;39.20
11239;DHT22;5677;48.488;13.436;2023-02-11T05:49:10;10.60;39.20
11239;DHT22;5677;48.488;13.436;2023-02-11T05:51:36;10.60;39.20
11239;DHT22;5677;48.488;13.436;2023-02-11T05:54:03;10.60;39.20
11239;DHT22;5677;48.488;13.436;2023-02-11T05:56:30;10.70;39.20
11239;DHT22;5677;48.488;13.436;2023-02-11T05:58:57;10.60;39.20
11239;DHT22;5677;48.488;13.436;2023-02-11T06:01:24;10.60;39.10
11239;DHT22;5677;48.488;13.436;2023-02-11T06:03:51;10.60;39.10
11239;DHT22;5677;48.488;13.436;2023-02-11T06:06:19;10.60;39.10
11239;DHT22;5677;48.488;13.436;2023-02-11T06:08:46;10.70;39.20
11239;DHT22;5677;48.488;13.436;2023-02-11T06:11:13;10.60;39.10
11239;DHT22;5677;48.488;13.436;2023-02-11T06:13:40;10.60;39.10
11239;DHT22;5677;48.488;13.436;2023-02-11T06:16:07;10.60;39.00
11239;DHT22;5677;48.488;13.436;2023-02-11T06:18:34;10.60;39.00
11239;DHT22;5677;48.488;13.436;2023-02-11T06:21:04;10.70;39.00
11239;DHT22;5677;48.488;13.436;2023-02-11T06:23:33;10.60;39.00
11239;DHT22;5677;48.488;13.436;2023-02-11T06:26:01;10.70;38.90
11239;DHT22;5677;48.488;13.436;2023-02-11T06:28:28;10.70;38.90
11239;DHT22;5677;48.488;13.436;2023-02-11T06:30:55;10.70;39.00
11239;DHT22;5677;48.488;13.436;2023-02-11T06:33:23;10.70;39.50
11239;DHT22;5677;48.488;13.436;2023-02-11T06:35:49;10.60;38.80
11239;DHT22;5677;48.488;13.436;2023-02-11T06:38:16;10.60;38.80
11239;DHT22;5677;48.488;13.436;2023-02-11T06:40:48;10.60;38.80
11239;DHT22;5677;48.488;13.436;2023-02-11T06:43:15;10.60;38.80
11239;DHT22;5677;48.488;13.436;2023-02-11T06:45:42;10.60;38.80
11239;DHT22;5677;48.488;13.436;2023-02-11T06:48:09;10.60;38.80
11239;DHT22;5677;48.488;13.436;2023-02-11T06:50:35;10.60;38.80
11239;DHT22;5677;48.488;13.436;2023-02-11T06:53:02;10.60;38.80
11239;DHT22;5677;48.488;13.436;2023-02-11T06:55:29;10.60;38.80
11239;DHT22;5677;48.488;13.436;2023-02-11T06:57:57;10.60;38.80
11239;DHT22;5677;48.488;13.436;2023-02-11T07:00:24;10.60;38.70
11239;DHT22;5677;48.488;13.436;2023-02-11T07:02:51;10.50;35.60
11239;DHT22;5677;48.488;13.436;2023-02-11T07:05:18;10.40;39.60
11239;DHT22;5677;48.488;13.436;2023-02-11T07:07:44;10.40;39.70
11239;DHT22;5677;48.488;13.436;2023-02-11T07:10:11;10.50;39.20
11239;DHT22;5677;48.488;13.436;2023-02-11T07:12:38;10.50;39.10
11239;DHT22;5677;48.488;13.436;2023-02-11T07:15:07;10.50;38.90
11239;DHT22;5677;48.488;13.436;2023-02-11T07:17:34;10.50;38.80
11239;DHT22;5677;48.488;13.436;2023-02-11T07:20:01;10.60;38.80
11239;DHT22;5677;48.488;13.436;2023-02-11T07:22:28;10.60;38.70
11239;DHT22;5677;48.488;13.436;2023-02-11T07:24:55;10.60;38.70
11239;DHT22;5677;48.488;13.436;2023-02-11T07:27:22;10.60;38.70
11239;DHT22;5677;48.488;13.436;2023-02-11T07:29:48;10.60;38.60
11239;DHT22;5677;48.488;13.436;2023-02-11T07:32:16;10.60;38.60
11239;DHT22;5677;48.488;13.436;2023-02-11T07:34:43;10.60;38.60
11239;DHT22;5677;48.488;13.436;2023-02-11T07:37:10;10.60;38.50
11239;DHT22;5677;48.488;13.436;2023-02-11T07:39:37;10.60;38.50
11239;DHT22;5677;48.488;13.436;2023-02-11T07:42:04;10.60;35.50
11239;DHT22;5677;48.488;13.436;2023-02-11T07:44:31;10.30;31.80
11239;DHT22;5677;48.488;13.436;2023-02-11T07:46:59;10.10;35.10
11239;DHT22;5677;48.488;13.436;2023-02-11T07:49:27;10.10;37.90
11239;DHT22;5677;48.488;13.436;2023-02-11T07:51:54;10.10;38.10
11239;DHT22;5677;48.488;13.436;2023-02-11T07:54:20;10.10;37.60
11239;DHT22;5677;48.488;13.436;2023-02-11T07:56:47;10.10;37.50
11239;DHT22;5677;48.488;13.436;2023-02-11T07:59:14;10.00;37.90
11239;DHT22;5677;48.488;13.436;2023-02-11T08:01:41;10.10;41.80
11239;DHT22;5677;48.488;13.436;2023-02-11T08:04:08;10.10;39.80
11239;DHT22;5677;48.488;13.436;2023-02-11T08:06:39;10.20;42.00
11239;DHT22;5677;48.488;13.436;2023-02-11T08:09:07;10.30;41.90
11239;DHT22;5677;48.488;13.436;2023-02-11T08:11:35;10.40;41.40
11239;DHT22;5677;48.488;13.436;2023-02-11T08:14:02;10.50;41.20
11239;DHT22;5677;48.488;13.436;2023-02-11T08:16:30;10.60;41.20
11239;DHT22;5677;48.488;13.436;2023-02-11T08:18:58;10.60;41.00
11239;DHT22;5677;48.488;13.436;2023-02-11T08:21:26;10.70;41.90
11239;DHT22;5677;48.488;13.436;2023-02-11T08:23:55;10.80;42.70
11239;DHT22;5677;48.488;13.436;2023-02-11T08:26:23;10.80;41.90
11239;DHT22;5677;48.488;13.436;2023-02-11T08:28:51;10.70;36.20
11239;DHT22;5677;48.488;13.436;2023-02-11T08:31:20;10.50;36.90
11239;DHT22;5677;48.488;13.436;2023-02-11T08:33:48;10.50;39.80
11239;DHT22;5677;48.488;13.436;2023-02-11T08:36:17;10.50;39.90
11239;DHT22;5677;48.488;13.436;2023-02-11T08:38:44;10.60;39.70
11239;DHT22;5677;48.488;13.436;2023-02-11T08:41:12;10.50;39.40
11239;DHT22;5677;48.488;13.436;2023-02-11T08:43:41;10.50;39.10
11239;DHT22;5677;48.488;13.436;2023-02-11T08:46:09;10.50;39.10
11239;DHT22;5677;48.488;13.436;2023-02-11T08:48:37;10.60;39.00
11239;DHT22;5677;48.488;13.436;2023-02-11T08:51:05;10.50;38.90
11239;DHT22;5677;48.488;13.436;2023-02-11T08:53:33;10.50;38.80
11239;DHT22;5677;48.488;13.436;2023-02-11T08:56:00;10.60;38.80
11239;DHT22;5677;48.488;13.436;2023-02-11T08:58:28;10.60;38.70
11239;DHT22;5677;48.488;13.436;2023-02-11T09:00:55;10.60;38.50
11239;DHT22;5677;48.488;13.436;2023-02-11T09:03:21;10.50;38.90
11239;DHT22;5677;48.488;13.436;2023-02-11T09:05:49;10.60;40.10
11239;DHT22;5677;48.488;13.436;2023-02-11T09:08:18;10.60;40.50
11239;DHT22;5677;48.488;13.436;2023-02-11T09:10:45;10.70;40.80
11239;DHT22;5677;48.488;13.436;2023-02-11T09:13:12;10.70;41.40
11239;DHT22;5677;48.488;13.436;2023-02-11T09:15:43;10.80;40.40
11239;DHT22;5677;48.488;13.436;2023-02-11T09:18:10;10.80;40.00
11239;DHT22;5677;48.488;13.436;2023-02-11T09:20:37;10.80;39.40
11239;DHT22;5677;48.488;13.436;2023-02-11T09:23:04;10.70;39.70
11239;DHT22;5677;48.488;13.436;2023-02-11T09:25:31;10.70;39.90
11239;DHT22;5677;48.488;13.436;2023-02-11T09:27:57;10.70;39.80
11239;DHT22;5677;48.488;13.436;2023-02-11T09:30:24;10.70;36.50
11239;DHT22;5677;48.488;13.436;2023-02-11T09:32:52;10.60;37.30
11239;DHT22;5677;48.488;13.436;2023-02-11T09:35:19;10.50;38.90
11239;DHT22;5677;48.488;13.436;2023-02-11T09:37:45;10.50;39.30
11239;DHT22;5677;48.488;13.436;2023-02-11T09:40:13;10.50;39.80
11239;DHT22;5677;48.488;13.436;2023-02-11T09:42:46;10.60;40.70
11239;DHT22;5677;48.488;13.436;2023-02-11T09:45:18;10.70;40.70
11239;DHT22;5677;48.488;13.436;2023-02-11T09:47:48;10.70;40.70
11239;DHT22;5677;48.488;13.436;2023-02-11T09:50:21;10.80;40.80
11239;DHT22;5677;48.488;13.436;2023-02-11T09:52:53;10.80;40.70
11239;DHT22;5677;48.488;13.436;2023-02-11T09:55:24;10.80;40.40
11239;DHT22;5677;48.488;13.436;2023-02-11T09:57:51;10.80;40.10
11239;DHT22;5677;48.488;13.436;2023-02-11T10:00:21;10.80;39.80
11239;DHT22;5677;48.488;13.436;2023-02-11T10:03:01;10.80;39.70
11239;DHT22;5677;48.488;13.436;2023-02-11T10:05:45;10.80;39.50
11239;DHT22;5677;48.488;13.436;2023-02-11T10:08:19;10.80;39.50
11239;DHT22;5677;48.488;13.436;2023-02-11T10:10:54;10.80;39.40
11239;DHT22;5677;48.488;13.436;2023-02-11T10:13:40;10.80;39.30
11239;DHT22;5677;48.488;13.436;2023-02-11T10:16:18;10.80;39.20
11239;DHT22;5677;48.488;13.436;2023-02-11T10:19:02;10.80;39.20
11239;DHT22;5677;48.488;13.436;2023-02-11T10:21:47;10.80;39.10
11239;DHT22;5677;48.488;13.436;2023-02-11T10:24:16;10.80;39.00
11239;DHT22;5677;48.488;13.436;2023-02-11T10:26:44;10.80;38.90
11239;DHT22;5677;48.488;13.436;2023-02-11T10:29:22;10.80;38.90
11239;DHT22;5677;48.488;13.436;2023-02-11T10:31:50;10.70;38.80
11239;DHT22;5677;48.488;13.436;2023-02-11T10:34:17;10.80;38.80
11239;DHT22;5677;48.488;13.436;2023-02-11T10:36:45;10.80;38.80
11239;DHT22;5677;48.488;13.436;2023-02-11T10:39:14;10.70;38.70
11239;DHT22;5677;48.488;13.436;2023-02-11T10:41:43;10.80;38.70
11239;DHT22;5677;48.488;13.436;2023-02-11T10:44:20;10.80;38.60
11239;DHT22;5677;48.488;13.436;2023-02-11T10:46:48;10.80;38.60
11239;DHT22;5677;48.488;13.436;2023-02-11T10:49:37;10.80;38.60
11239;DHT22;5677;48.488;13.436;2023-02-11T10:52:19;10.80;38.50
11239;DHT22;5677;48.488;13.436;2023-02-11T10:55:03;10.80;38.40
11239;DHT22;5677;48.488;13.436;2023-02-11T10:57:33;10.80;38.50
11239;DHT22;5677;48.488;13.436;2023-02-11T11:00:07;10.80;38.40
11239;DHT22;5677;48.488;13.436;2023-02-11T11:02:50;10.80;38.40
11239;DHT22;5677;48.488;13.436;2023-02-11T11:05:20;10.80;38.40
11239;DHT22;5677;48.488;13.436;2023-02-11T11:07:55;10.80;38.40
11239;DHT22;5677;48.488;13.436;2023-02-11T11:10:34;10.80;38.30
11239;DHT22;5677;48.488;13.436;2023-02-11T11:13:01;10.80;38.30
11239;DHT22;5677;48.488;13.436;2023-02-11T11:15:30;10.80;38.30
11239;DHT22;5677;48.488;13.436;2023-02-11T11:18:13;10.80;38.30
11239;DHT22;5677;48.488;13.436;2023-02-11T11:20:43;10.80;38.20
11239;DHT22;5677;48.488;13.436;2023-02-11T11:23:21;10.80;38.20
11239;DHT22;5677;48.488;13.436;2023-02-11T11:26:00;10.80;38.20
11239;DHT22;5677;48.488;13.436;2023-02-11T11:28:29;10.80;38.10
11239;DHT22;5677;48.488;13.436;2023-02-11T11:30:58;10.80;38.20
11239;DHT22;5677;48.488;13.436;2023-02-11T11:33:27;10.80;38.20
11239;DHT22;5677;48.488;13.436;2023-02-11T11:36:05;10.80;38.10
11239;DHT22;5677;48.488;13.436;2023-02-11T11:38:37;10.80;38.10
11239;DHT22;5677;48.488;13.436;2023-02-11T11:41:20;10.80;38.10
11239;DHT22;5677;48.488;13.436;2023-02-11T11:43:58;10.80;38.10
11239;DHT22;5677;48.488;13.436;2023-02-11T11:46:28;10.80;38.10
11239;DHT22;5677;48.488;13.436;2023-02-11T11:48:59;10.80;38.10
11239;DHT22;5677;48.488;13.436;2023-02-11T11:51:29;10.80;38.10
11239;DHT22;5677;48.488;13.436;2023-02-11T11:54:02;10.80;37.10
11239;DHT22;5677;48.488;13.436;2023-02-11T11:56:31;10.90;40.90
11239;DHT22;5677;48.488;13.436;2023-02-11T11:59:00;11.00;41.30
11239;DHT22;5677;48.488;13.436;2023-02-11T12:01:34;10.90;40.10
11239;DHT22;5677;48.488;13.436;2023-02-11T12:04:34;10.90;39.70
11239;DHT22;5677;48.488;13.436;2023-02-11T12:07:13;10.90;39.40
11239;DHT22;5677;48.488;13.436;2023-02-11T12:09:53;11.00;39.40
11239;DHT22;5677;48.488;13.436;2023-02-11T12:12:39;11.00;40.00
11239;DHT22;5677;48.488;13.436;2023-02-11T12:15:22;11.00;40.70
11239;DHT22;5677;48.488;13.436;2023-02-11T12:18:00;11.00;40.60
11239;DHT22;5677;48.488;13.436;2023-02-11T12:20:37;11.10;40.50
11239;DHT22;5677;48.488;13.436;2023-02-11T12:23:20;11.10;40.40
11239;DHT22;5677;48.488;13.436;2023-02-11T12:25:57;11.10;40.40
11239;DHT22;5677;48.488;13.436;2023-02-11T12:28:34;11.10;40.40
11239;DHT22;5677;48.488;13.436;2023-02-11T12:31:16;11.10;40.40
11239;DHT22;5677;48.488;13.436;2023-02-11T12:33:59;11.10;40.50
11239;DHT22;5677;48.488;13.436;2023-02-11T12:36:45;11.10;40.50
11239;DHT22;5677;48.488;13.436;2023-02-11T12:39:29;11.10;40.60
11239;DHT22;5677;48.488;13.436;2023-02-11T12:45:28;11.10;41.90
11239;DHT22;5677;48.488;13.436;2023-02-11T12:48:07;11.20;41.40
11239;DHT22;5677;48.488;13.436;2023-02-11T12:50:44;11.20;41.20
11239;DHT22;5677;48.488;13.436;2023-02-11T12:53:25;11.20;40.70
11239;DHT22;5677;48.488;13.436;2023-02-11T12:55:58;11.20;40.50
11239;DHT22;5677;48.488;13.436;2023-02-11T12:58:29;11.20;40.40
11239;DHT22;5677;48.488;13.436;2023-02-11T13:01:01;11.20;42.40
11239;DHT22;5677;48.488;13.436;2023-02-11T13:03:34;11.30;43.20
11239;DHT22;5677;48.488;13.436;2023-02-11T13:06:06;11.30;42.90
11239;DHT22;5677;48.488;13.436;2023-02-11T13:08:36;11.40;42.30
11239;DHT22;5677;48.488;13.436;2023-02-11T13:11:07;11.40;42.50
11239;DHT22;5677;48.488;13.436;2023-02-11T13:13:46;11.40;42.90
11239;DHT22;5677;48.488;13.436;2023-02-11T13:16:19;11.40;42.00
11239;DHT22;5677;48.488;13.436;2023-02-11T13:18:53;11.30;41.80
11239;DHT22;5677;48.488;13.436;2023-02-11T13:21:47;11.30;41.60
11239;DHT22;5677;48.488;13.436;2023-02-11T13:24:24;11.30;41.40
11239;DHT22;5677;48.488;13.436;2023-02-11T13:26:58;11.30;41.50
11239;DHT22;5677;48.488;13.436;2023-02-11T13:29:30;11.20;41.80
11239;DHT22;5677;48.488;13.436;2023-02-11T13:32:07;11.30;42.20
11239;DHT22;5677;48.488;13.436;2023-02-11T13:34:53;11.30;42.50
11239;DHT22;5677;48.488;13.436;2023-02-11T13:37:22;11.30;42.50
11239;DHT22;5677;48.488;13.436;2023-02-11T13:40:01;11.40;42.00
11239;DHT22;5677;48.488;13.436;2023-02-11T13:42:30;11.40;41.60
11239;DHT22;5677;48.488;13.436;2023-02-11T13:44:58;11.40;41.00
11239;DHT22;5677;48.488;13.436;2023-02-11T13:47:29;11.40;41.00
11239;DHT22;5677;48.488;13.436;2023-02-11T13:49:57;11.40;41.10
11239;DHT22;5677;48.488;13.436;2023-02-11T13:52:27;11.30;40.40
11239;DHT22;5677;48.488;13.436;2023-02-11T13:54:58;11.30;40.70
11239;DHT22;5677;48.488;13.436;2023-02-11T13:57:36;11.30;40.30
11239;DHT22;5677;48.488;13.436;2023-02-11T14:03:31;11.30;40.00
11239;DHT22;5677;48.488;13.436;2023-02-11T14:06:18;11.30;39.80
11239;DHT22;5677;48.488;13.436;2023-02-11T14:09:32;11.30;39.90
11239;DHT22;5677;48.488;13.436;2023-02-11T14:12:22;11.30;39.80
11239;DHT22;5677;48.488;13.436;2023-02-11T14:18:00;11.30;39.70
11239;DHT22;5677;48.488;13.436;2023-02-11T14:20:43;11.20;39.50
11239;DHT22;5677;48.488;13.436;2023-02-11T14:23:23;11.20;39.40
11239;DHT22;5677;48.488;13.436;2023-02-11T14:28:56;11.20;39.80
11239;DHT22;5677;48.488;13.436;2023-02-11T14:31:29;11.20;39.60
11239;DHT22;5677;48.488;13.436;2023-02-11T14:34:38;11.20;39.40
11239;DHT22;5677;48.488;13.436;2023-02-11T14:37:17;11.20;39.90
11239;DHT22;5677;48.488;13.436;2023-02-11T14:39:57;11.20;39.30
11239;DHT22;5677;48.488;13.436;2023-02-11T14:42:29;11.20;39.30
11239;DHT22;5677;48.488;13.436;2023-02-11T14:45:01;11.20;39.20
11239;DHT22;5677;48.488;13.436;2023-02-11T14:47:35;11.20;39.20
11239;DHT22;5677;48.488;13.436;2023-02-11T14:50:10;11.20;39.20
11239;DHT22;5677;48.488;13.436;2023-02-11T14:52:42;11.20;39.20
11239;DHT22;5677;48.488;13.436;2023-02-11T14:55:17;11.20;39.20
11239;DHT22;5677;48.488;13.436;2023-02-11T14:57:44;11.20;39.10
11239;DHT22;5677;48.488;13.436;2023-02-11T15:00:18;11.20;39.10
11239;DHT22;5677;48.488;13.436;2023-02-11T15:02:45;11.20;39.10
11239;DHT22;5677;48.488;13.436;2023-02-11T15:05:15;11.20;39.10
11239;DHT22;5677;48.488;13.436;2023-02-11T15:07:47;11.20;39.00
11239;DHT22;5677;48.488;13.436;2023-02-11T15:10:18;11.20;39.10
11239;DHT22;5677;48.488;13.436;2023-02-11T15:12:46;11.20;39.00
11239;DHT22;5677;48.488;13.436;2023-02-11T15:15:16;11.20;39.00
11239;DHT22;5677;48.488;13.436;2023-02-11T15:17:43;11.20;39.00
11239;DHT22;5677;48.488;13.436;2023-02-11T15:20:19;11.20;40.10
11239;DHT22;5677;48.488;13.436;2023-02-11T15:22:51;11.20;39.50
11239;DHT22;5677;48.488;13.436;2023-02-11T15:25:20;11.20;40.30
11239;DHT22;5677;48.488;13.436;2023-02-11T15:27:50;11.20;39.40
11239;DHT22;5677;48.488;13.436;2023-02-11T15:30:25;11.20;39.40
11239;DHT22;5677;48.488;13.436;2023-02-11T15:32:54;11.20;39.30
11239;DHT22;5677;48.488;13.436;2023-02-11T15:35:26;11.20;39.90
11239;DHT22;5677;48.488;13.436;2023-02-11T15:37:55;11.20;39.30
11239;DHT22;5677;48.488;13.436;2023-02-11T15:40:24;11.20;39.60
11239;DHT22;5677;48.488;13.436;2023-02-11T15:42:54;11.20;39.50
11239;DHT22;5677;48.488;13.436;2023-02-11T15:45:23;11.20;39.80
11239;DHT22;5677;48.488;13.436;2023-02-11T15:47:56;11.20;40.00
11239;DHT22;5677;48.488;13.436;2023-02-11T15:50:25;11.30;40.10
11239;DHT22;5677;48.488;13.436;2023-02-11T15:52:55;11.20;37.20
11239;DHT22;5677;48.488;13.436;2023-02-11T15:55:23;11.10;37.40
11239;DHT22;5677;48.488;13.436;2023-02-11T15:57:52;11.10;40.30
11239;DHT22;5677;48.488;13.436;2023-02-11T16:00:22;11.10;41.10
11239;DHT22;5677;48.488;13.436;2023-02-11T16:02:50;11.20;41.80
11239;DHT22;5677;48.488;13.436;2023-02-11T16:05:25;11.20;40.40
11239;DHT22;5677;48.488;13.436;2023-02-11T16:07:52;11.20;40.20
11239;DHT22;5677;48.488;13.436;2023-02-11T16:10:25;11.20;40.30